Kenyon, Minnesota
Current Conditions -  °F | °C
As of 7:33 AM on Thursday 30 Oct 2014 (Local Time) from KSYN Reporting Station
Overcast Overcast  
Wind Chill: 40°   Ceiling: 6000
Heat Index: 40°   Visibility: 10mi
Dew Point: 35°   Wind: 0mph
Humidity: 80%   Direction: NA
Pressure: 30.02"   Gusts: NA
Location:  44.27°N, 92.99°W
Report Text: KSYN 301233Z AUTO 00000KT 10SM OVC060 05/01 A3002 RMK AO2 T00460014
Loading
Personal Weather Stations






























Interactive Weather Map New forecast layout! Learn more

10-Day Weather Forecast

Advertisements
Track Severe Weather on mobile